createdAt,value
2022-08-11T00:00:17.295Z,24.70
2022-08-11T00:05:24.408Z,24.80
2022-08-11T00:10:33.808Z,24.80
2022-08-11T00:15:46.180Z,24.80
2022-08-11T00:21:02.158Z,25.00
2022-08-11T00:26:10.642Z,24.70
2022-08-11T00:31:37.753Z,24.70
2022-08-11T00:37:09.762Z,24.60
2022-08-11T00:42:42.737Z,24.70
2022-08-11T00:48:00.123Z,24.50
2022-08-11T00:53:39.761Z,24.60
2022-08-11T00:58:59.061Z,24.70
2022-08-11T01:04:23.250Z,24.60
2022-08-11T01:09:47.590Z,24.50
2022-08-11T01:15:26.370Z,24.50
2022-08-11T01:21:09.483Z,24.40
2022-08-11T01:26:46.035Z,24.40
2022-08-11T01:32:15.950Z,24.50
2022-08-11T01:37:56.030Z,24.50
2022-08-11T01:43:38.025Z,24.50
2022-08-11T01:49:29.130Z,24.50
2022-08-11T01:54:45.678Z,24.40
2022-08-11T02:00:04.625Z,24.30
2022-08-11T02:05:18.054Z,24.30
2022-08-11T02:10:55.000Z,24.20
2022-08-11T02:42:49.311Z,24.60
2022-08-11T02:48:32.048Z,24.50
2022-08-11T02:54:13.529Z,24.40
2022-08-11T02:59:59.917Z,24.30
2022-08-11T03:05:21.968Z,24.40
2022-08-11T03:10:32.127Z,24.50
2022-08-11T03:16:33.665Z,24.40
2022-08-11T04:03:55.539Z,24.00
2022-08-11T04:09:32.177Z,24.00
2022-08-11T04:15:43.772Z,24.00
2022-08-11T04:21:19.065Z,24.00
2022-08-11T04:26:55.331Z,24.00
2022-08-11T04:32:33.026Z,24.10
2022-08-11T04:38:08.380Z,24.10
2022-08-11T04:44:02.359Z,24.20
2022-08-11T04:49:57.891Z,24.20
2022-08-11T04:55:52.833Z,24.20
2022-08-11T05:01:45.162Z,24.20
2022-08-11T05:07:21.019Z,24.20
2022-08-11T05:12:38.064Z,24.30
2022-08-11T05:18:29.735Z,24.50
2022-08-11T05:23:56.700Z,24.60
2022-08-11T05:29:27.713Z,24.70
2022-08-11T05:34:56.100Z,24.80
2022-08-11T05:40:40.894Z,25.00
2022-08-11T05:46:28.904Z,25.20
2022-08-11T06:15:57.708Z,28.50
2022-08-11T06:21:04.403Z,29.20
2022-08-11T06:26:18.908Z,30.00
2022-08-11T06:31:26.801Z,30.10
2022-08-11T06:36:56.916Z,29.40
2022-08-11T06:42:11.584Z,28.70
2022-08-11T06:47:22.358Z,27.90
2022-08-11T06:52:44.889Z,27.70
2022-08-11T06:58:12.527Z,27.70
2022-08-11T07:03:22.459Z,28.10
2022-08-11T07:08:46.906Z,28.40
2022-08-11T07:33:05.007Z,28.40
2022-08-11T07:38:25.641Z,28.30
2022-08-11T07:43:32.337Z,28.40
2022-08-11T07:48:56.979Z,29.00
2022-08-11T07:54:16.151Z,29.50
2022-08-11T08:00:03.411Z,29.60
2022-08-11T08:05:39.168Z,29.70
2022-08-11T08:11:05.546Z,29.50
2022-08-11T08:16:31.634Z,29.40
2022-08-11T08:21:45.331Z,29.50
2022-08-11T09:00:23.735Z,30.50
2022-08-11T09:05:30.214Z,30.30
2022-08-11T09:10:37.224Z,30.10
2022-08-11T09:15:46.840Z,30.10
2022-08-11T09:20:53.055Z,30.10
2022-08-11T09:26:21.655Z,30.10
2022-08-11T09:31:34.604Z,29.90
2022-08-11T09:44:23.797Z,29.20
2022-08-11T09:49:30.967Z,29.30
2022-08-11T09:54:37.480Z,29.30
2022-08-11T09:59:43.632Z,29.30
2022-08-11T10:04:50.600Z,29.30
2022-08-11T10:10:03.477Z,29.30
2022-08-11T10:15:32.910Z,29.40
2022-08-11T10:20:41.316Z,29.50
2022-08-11T10:26:06.524Z,29.40
2022-08-11T10:31:47.937Z,29.30
2022-08-11T10:36:59.043Z,29.10
2022-08-11T10:42:41.386Z,28.90
2022-08-11T10:47:50.132Z,28.80
2022-08-11T10:53:14.988Z,28.70
2022-08-11T10:58:39.968Z,28.50
2022-08-11T11:03:46.951Z,28.40
2022-08-11T11:08:58.792Z,28.30
2022-08-11T11:14:27.323Z,27.60
2022-08-11T11:19:44.954Z,26.90
2022-08-11T11:25:23.085Z,25.10
2022-08-11T11:30:42.639Z,24.40
2022-08-11T11:36:28.192Z,24.30
2022-08-11T11:41:34.881Z,24.30
2022-08-11T11:46:50.855Z,24.40
2022-08-11T11:51:59.924Z,24.50
2022-08-11T11:57:26.367Z,24.30
2022-08-11T12:02:34.394Z,24.40
2022-08-11T12:08:12.890Z,24.40
2022-08-11T12:13:39.111Z,24.40
2022-08-11T12:18:54.437Z,24.50
2022-08-11T12:24:22.215Z,24.40
2022-08-11T12:29:31.560Z,24.30
2022-08-11T12:34:40.076Z,24.40
2022-08-11T12:40:43.336Z,24.40
2022-08-11T12:45:48.638Z,24.40
2022-08-11T12:51:22.431Z,24.60
2022-08-11T12:57:00.438Z,24.60
2022-08-11T13:02:26.220Z,24.70
2022-08-11T13:07:49.939Z,24.70
2022-08-11T13:13:01.157Z,24.90
2022-08-11T13:18:12.601Z,24.90
2022-08-11T13:23:23.216Z,24.80
2022-08-11T13:28:34.127Z,24.90
2022-08-11T13:33:46.056Z,25.00
2022-08-11T13:38:57.431Z,25.10
2022-08-11T13:44:04.646Z,25.20
2022-08-11T13:49:16.781Z,25.20
2022-08-11T13:54:39.806Z,25.20
2022-08-11T13:59:52.321Z,25.20
2022-08-11T14:05:15.007Z,25.20
2022-08-11T14:10:35.407Z,25.20
2022-08-11T14:15:46.648Z,25.30
2022-08-11T14:21:20.212Z,25.30
2022-08-11T14:26:30.363Z,25.30
2022-08-11T14:31:40.337Z,25.30
2022-08-11T14:36:49.520Z,25.20
2022-08-11T14:42:22.179Z,25.40
2022-08-11T14:47:41.022Z,25.40
2022-08-11T14:52:53.490Z,25.40
2022-08-11T14:58:00.140Z,25.40
2022-08-11T15:03:17.202Z,25.50
2022-08-11T15:08:46.156Z,25.40
2022-08-11T15:13:53.559Z,25.50
2022-08-11T15:19:01.539Z,25.50
2022-08-11T15:24:23.651Z,25.40
2022-08-11T15:29:55.445Z,25.60
2022-08-11T15:35:21.960Z,25.80
2022-08-11T15:40:51.140Z,25.70
2022-08-11T15:46:04.085Z,25.80
2022-08-11T15:51:16.283Z,25.80
2022-08-11T15:56:27.769Z,25.80
2022-08-11T16:01:52.774Z,25.80
2022-08-11T16:07:06.562Z,25.70
2022-08-11T16:12:17.841Z,25.80
2022-08-11T16:17:27.089Z,25.90
2022-08-11T16:22:43.119Z,25.80
2022-08-11T16:28:09.542Z,25.90
2022-08-11T16:33:50.259Z,25.90
2022-08-11T16:38:50.425Z,25.80
2022-08-11T16:44:13.924Z,25.90
2022-08-11T16:49:21.546Z,25.80
2022-08-11T16:54:28.017Z,25.90
2022-08-11T16:59:38.192Z,25.90
2022-08-11T17:05:12.514Z,25.90
2022-08-11T17:11:06.917Z,26.00
2022-08-11T17:16:15.895Z,25.90
2022-08-11T17:21:29.757Z,25.90
2022-08-11T17:27:01.364Z,25.80
2022-08-11T17:32:56.467Z,25.80
2022-08-11T17:38:17.113Z,25.70
2022-08-11T17:43:41.321Z,25.80
2022-08-11T17:48:49.034Z,25.60
2022-08-11T17:54:27.194Z,25.30
2022-08-11T17:59:52.183Z,25.20
2022-08-11T18:05:03.123Z,25.10
2022-08-11T18:10:29.431Z,25.00
2022-08-11T18:15:55.772Z,25.00
2022-08-11T18:21:20.930Z,25.00
2022-08-11T18:26:47.718Z,25.10
2022-08-11T18:32:21.781Z,25.20
2022-08-11T18:37:54.693Z,25.40
2022-08-11T18:43:26.487Z,25.40
2022-08-11T18:48:52.379Z,25.50
2022-08-11T18:54:22.619Z,25.50
2022-08-11T18:59:49.453Z,25.50
2022-08-11T19:05:16.873Z,25.50
2022-08-11T19:10:42.358Z,25.40
2022-08-11T19:16:06.787Z,25.30
2022-08-11T19:21:32.970Z,25.30
2022-08-11T19:26:58.358Z,25.30
2022-08-11T19:32:25.324Z,25.30
2022-08-11T19:37:50.828Z,25.20
2022-08-11T19:43:24.540Z,25.30
2022-08-11T19:48:51.054Z,25.10
2022-08-11T19:54:15.987Z,25.10
2022-08-11T19:59:41.084Z,25.10
2022-08-11T20:05:05.017Z,24.90
2022-08-11T20:10:32.407Z,24.90
2022-08-11T20:15:59.379Z,24.80
2022-08-11T20:21:26.228Z,24.80
2022-08-11T20:26:57.489Z,24.70
2022-08-11T20:32:22.216Z,24.60
2022-08-11T20:37:50.996Z,24.50
2022-08-11T20:44:06.710Z,24.50
2022-08-11T20:49:01.913Z,24.40
2022-08-11T20:54:38.289Z,24.50
2022-08-11T21:00:07.787Z,24.50
2022-08-11T21:06:08.695Z,24.60
2022-08-11T21:11:21.649Z,24.60
2022-08-11T21:16:55.864Z,24.70
2022-08-11T21:22:28.005Z,24.60
2022-08-11T21:27:54.642Z,24.50
2022-08-11T21:33:18.005Z,24.50
2022-08-11T21:38:42.605Z,24.30
2022-08-11T21:44:11.618Z,24.20
2022-08-11T21:49:37.303Z,24.20
2022-08-11T21:55:02.855Z,23.90
2022-08-11T22:00:27.869Z,23.80
2022-08-11T22:05:54.155Z,23.70
2022-08-11T22:11:32.478Z,23.70
2022-08-11T22:16:57.247Z,23.70
2022-08-11T22:22:25.595Z,23.60
2022-08-11T22:27:51.399Z,23.70
2022-08-11T22:33:19.221Z,23.80
2022-08-11T22:38:51.664Z,23.70
2022-08-11T22:44:15.793Z,23.70
2022-08-11T22:49:42.568Z,23.60
2022-08-11T22:55:22.667Z,23.60
2022-08-11T23:00:47.578Z,23.50
2022-08-11T23:06:12.165Z,23.30
2022-08-11T23:12:04.718Z,23.30
2022-08-11T23:17:20.343Z,23.10
2022-08-11T23:22:49.802Z,23.20
2022-08-11T23:28:16.020Z,23.30
2022-08-11T23:33:41.786Z,23.40
2022-08-11T23:39:05.786Z,23.50
2022-08-11T23:44:30.526Z,23.50
2022-08-11T23:49:57.542Z,23.50
2022-08-11T23:55:22.337Z,23.60
